PWSweather.com
Personal Weather Stations
Station Observations
SHAHALMS1
Eftra, Falkenberg, HA

EftraFalkenberg, HA

Lat: 56.85, Lon: 12.65

Elevation: 140

Station Type:

http://hem.passagen.se/risarp101

High Low Average
Temperature 64.4°F18.0°C 55.4°F13.0°C 59.7°F15.4°C
Dew Point 59.1°F15.1°C 51.6°F10.9°C 56.0°F13.3°C
Winds 10.7 mph 17.2 kmh Calm Calm 5.0 mph NW8.0 kmh NW
Wind Gusts 20.4 mph32.8 kmh -- 11.0 mph17.7 kmh
Humidity 94% 76% 88%
Pressure 30.09 in1019.0 mb 29.89 in1012.2 mb -
Precipitation 0.05 in1.3 mm - -
Hour Temp Dew Point Humidity Winds Wind Gusts Pressure Precip Precip Rate Daily Precip Total
12:00 AM 58.8°F14.9°C 56.8°F13.8°C 93% 4.2 mph N6.8 kmh N 7.9 mph12.7 kmh 29.92 in1013.2 mb 0.00 in0.0 mm 0.00 in0.0 mm 0.00 in0.0 mm
12:15 AM 58.8°F14.9°C 56.8°F13.8°C 93% 3.5 mph N5.6 kmh N 8.6 mph13.8 kmh 29.92 in1013.2 mb 0.00 in0.0 mm 0.00 in0.0 mm 0.00 in0.0 mm
12:30 AM 58.6°F14.8°C 56.6°F13.7°C 93% 1.5 mph N2.4 kmh N 6.4 mph10.3 kmh 29.92 in1013.2 mb 0.00 in0.0 mm 0.00 in0.0 mm 0.00 in0.0 mm
12:45 AM 58.6°F14.8°C 56.6°F13.7°C 93% 2.7 mph N4.3 kmh N 8.6 mph13.8 kmh 29.89 in1012.2 mb 0.00 in0.0 mm 0.00 in0.0 mm 0.00 in0.0 mm
01:00 AM 58.6°F14.8°C 56.6°F13.7°C 93% 1.6 mph N2.6 kmh N 5.0 mph8.0 kmh 29.89 in1012.2 mb 0.00 in0.0 mm 0.00 in0.0 mm 0.00 in0.0 mm
01:15 AM 58.5°F14.7°C 56.4°F13.6°C 93% 3.7 mph N6.0 kmh N 6.8 mph10.9 kmh 29.92 in1013.2 mb 0.00 in0.0 mm 0.00 in0.0 mm 0.00 in0.0 mm
01:30 AM 58.5°F14.7°C 56.4°F13.6°C 93% 3.9 mph N6.3 kmh N 6.8 mph10.9 kmh 29.89 in1012.2 mb 0.00 in0.0 mm 0.00 in0.0 mm 0.00 in0.0 mm
01:45 AM 58.6°F14.8°C 56.6°F13.7°C 93% 3.9 mph N6.3 kmh N 6.8 mph10.9 kmh 29.89 in1012.2 mb 0.00 in0.0 mm 0.00 in0.0 mm 0.00 in0.0 mm
02:00 AM 58.6°F14.8°C 56.6°F13.7°C 93% 2.9 mph N4.7 kmh N 7.9 mph12.7 kmh 29.89 in1012.2 mb 0.00 in0.0 mm 0.00 in0.0 mm 0.00 in0.0 mm
02:15 AM 58.6°F14.8°C 56.6°F13.7°C 93% 2.3 mph N3.7 kmh N 6.8 mph10.9 kmh 29.89 in1012.2 mb 0.00 in0.0 mm 0.00 in0.0 mm 0.00 in0.0 mm
02:30 AM 58.5°F14.7°C 56.4°F13.6°C 93% 1.8 mph N2.9 kmh N 7.2 mph11.6 kmh 29.89 in1012.2 mb 0.00 in0.0 mm 0.00 in0.0 mm 0.00 in0.0 mm
02:45 AM 58.5°F14.7°C 56.4°F13.6°C 93% 0.5 mph N0.8 kmh N 5.0 mph8.0 kmh 29.89 in1012.2 mb 0.00 in0.0 mm 0.00 in0.0 mm 0.00 in0.0 mm
03:00 AM 58.5°F14.7°C 56.4°F13.6°C 93% 2.1 mph N3.4 kmh N 6.4 mph10.3 kmh 29.89 in1012.2 mb 0.00 in0.0 mm 0.00 in0.0 mm 0.00 in0.0 mm
03:15 AM 58.5°F14.7°C 56.4°F13.6°C 93% 5.3 mph N8.5 kmh N 9.3 mph15.0 kmh 29.92 in1013.2 mb 0.00 in0.0 mm 0.00 in0.0 mm 0.00 in0.0 mm
03:30 AM 58.5°F14.7°C 56.7°F13.7°C 94% 4.8 mph N7.7 kmh N 8.6 mph13.8 kmh 29.89 in1012.2 mb 0.00 in0.0 mm 0.00 in0.0 mm 0.00 in0.0 mm
03:45 AM 58.5°F14.7°C 56.4°F13.6°C 93% 4.8 mph N7.7 kmh N 10.0 mph16.1 kmh 29.95 in1014.2 mb 0.00 in0.0 mm 0.00 in0.0 mm 0.00 in0.0 mm
04:00 AM 58.5°F14.7°C 56.7°F13.7°C 94% 3.9 mph N6.3 kmh N 8.9 mph14.3 kmh 29.92 in1013.2 mb 0.00 in0.0 mm 0.00 in0.0 mm 0.00 in0.0 mm
04:15 AM 58.3°F14.6°C 56.6°F13.7°C 94% 0.5 mph N0.8 kmh N 4.3 mph6.9 kmh 29.89 in1012.2 mb 0.00 in0.0 mm 0.00 in0.0 mm 0.00 in0.0 mm
04:30 AM 58.3°F14.6°C 56.6°F13.7°C 94% 2.7 mph N4.3 kmh N 8.6 mph13.8 kmh 29.89 in1012.2 mb 0.00 in0.0 mm 0.00 in0.0 mm 0.00 in0.0 mm
04:45 AM 58.3°F14.6°C 56.3°F13.5°C 93% 3.7 mph N6.0 kmh N 10.4 mph16.7 kmh 29.92 in1013.2 mb 0.00 in0.0 mm 0.00 in0.0 mm 0.00 in0.0 mm
05:00 AM 58.3°F14.6°C 56.3°F13.5°C 93% 4.8 mph N7.7 kmh N 10.0 mph16.1 kmh 29.89 in1012.2 mb 0.00 in0.0 mm 0.00 in0.0 mm 0.00 in0.0 mm
05:15 AM 58.3°F14.6°C 56.3°F13.5°C 93% 6.2 mph N10.0 kmh N 11.1 mph17.9 kmh 29.92 in1013.2 mb 0.00 in0.0 mm 0.00 in0.0 mm 0.00 in0.0 mm
05:30 AM 58.1°F14.5°C 56.1°F13.4°C 93% 5.7 mph N9.2 kmh N 10.4 mph16.7 kmh 29.92 in1013.2 mb 0.00 in0.0 mm 0.00 in0.0 mm 0.00 in0.0 mm
05:45 AM 58.1°F14.5°C 56.1°F13.4°C 93% 5.9 mph N9.5 kmh N 9.7 mph15.6 kmh 29.92 in1013.2 mb 0.00 in0.0 mm 0.00 in0.0 mm 0.00 in0.0 mm
06:00 AM 57.9°F14.4°C 55.9°F13.3°C 93% 3.0 mph N4.8 kmh N 9.3 mph15.0 kmh 29.92 in1013.2 mb 0.00 in0.0 mm 0.00 in0.0 mm 0.00 in0.0 mm
06:15 AM 57.9°F14.4°C 56.2°F13.4°C 94% 6.6 mph N10.6 kmh N 11.8 mph19.0 kmh 29.92 in1013.2 mb 0.00 in0.0 mm 0.00 in0.0 mm 0.00 in0.0 mm
06:30 AM 57.9°F14.4°C 56.2°F13.4°C 94% 6.5 mph N10.5 kmh N 11.1 mph17.9 kmh 29.92 in1013.2 mb 0.00 in0.0 mm 0.00 in0.0 mm 0.00 in0.0 mm
06:45 AM 57.9°F14.4°C 56.2°F13.4°C 94% 6.0 mph N9.7 kmh N 11.8 mph19.0 kmh 29.92 in1013.2 mb 0.00 in0.0 mm 0.00 in0.0 mm 0.00 in0.0 mm
07:00 AM 58.1°F14.5°C 56.4°F13.6°C 94% 6.5 mph N10.5 kmh N 12.2 mph19.6 kmh 29.92 in1013.2 mb 0.00 in0.0 mm 0.00 in0.0 mm 0.00 in0.0 mm
07:15 AM 58.3°F14.6°C 56.6°F13.7°C 94% 5.1 mph N8.2 kmh N 9.3 mph15.0 kmh 29.92 in1013.2 mb 0.00 in0.0 mm 0.00 in0.0 mm 0.00 in0.0 mm
07:30 AM 58.5°F14.7°C 56.7°F13.7°C 94% 5.3 mph N8.5 kmh N 8.6 mph13.8 kmh 29.92 in1013.2 mb 0.00 in0.0 mm 0.00 in0.0 mm 0.00 in0.0 mm
07:45 AM 58.6°F14.8°C 56.9°F13.8°C 94% 4.7 mph N7.6 kmh N 9.7 mph15.6 kmh 29.95 in1014.2 mb 0.00 in0.0 mm 0.00 in0.0 mm 0.00 in0.0 mm
08:00 AM 58.8°F14.9°C 56.8°F13.8°C 93% 6.8 mph N10.9 kmh N 12.2 mph19.6 kmh 29.95 in1014.2 mb 0.00 in0.0 mm 0.00 in0.0 mm 0.00 in0.0 mm
08:15 AM 59.2°F15.1°C 57.2°F14.0°C 93% 6.2 mph N10.0 kmh N 10.0 mph16.1 kmh 29.95 in1014.2 mb 0.00 in0.0 mm 0.00 in0.0 mm 0.00 in0.0 mm
08:30 AM 59.5°F15.3°C 57.5°F14.2°C 93% 6.1 mph N9.8 kmh N 10.4 mph16.7 kmh 29.95 in1014.2 mb 0.00 in0.0 mm 0.00 in0.0 mm 0.00 in0.0 mm
08:45 AM 59.9°F15.5°C 57.9°F14.4°C 93% 6.7 mph N10.8 kmh N 12.9 mph20.8 kmh 29.95 in1014.2 mb 0.00 in0.0 mm 0.00 in0.0 mm 0.00 in0.0 mm
09:00 AM 60.1°F15.6°C 58.0°F14.4°C 93% 6.5 mph N10.5 kmh N 12.5 mph20.1 kmh 29.95 in1014.2 mb 0.00 in0.0 mm 0.00 in0.0 mm 0.00 in0.0 mm
09:15 AM 60.3°F15.7°C 57.9°F14.4°C 92% 5.9 mph N9.5 kmh N 12.9 mph20.8 kmh 29.98 in1015.2 mb 0.00 in0.0 mm 0.00 in0.0 mm 0.00 in0.0 mm
09:30 AM 60.3°F15.7°C 57.9°F14.4°C 92% 5.8 mph N9.3 kmh N 11.1 mph17.9 kmh 29.98 in1015.2 mb 0.00 in0.0 mm 0.00 in0.0 mm 0.00 in0.0 mm
09:45 AM 60.6°F15.9°C 58.3°F14.6°C 92% 6.5 mph N10.5 kmh N 12.2 mph19.6 kmh 29.98 in1015.2 mb 0.00 in0.0 mm 0.00 in0.0 mm 0.00 in0.0 mm
10:00 AM 61.2°F16.2°C 58.8°F14.9°C 92% 5.8 mph N9.3 kmh N 9.7 mph15.6 kmh 29.98 in1015.2 mb 0.00 in0.0 mm 0.00 in0.0 mm 0.00 in0.0 mm
10:15 AM 61.5°F16.4°C 58.6°F14.8°C 90% 7.0 mph N11.3 kmh N 12.9 mph20.8 kmh 29.98 in1015.2 mb 0.00 in0.0 mm 0.00 in0.0 mm 0.00 in0.0 mm
10:30 AM 61.7°F16.5°C 58.7°F14.8°C 90% 6.8 mph N10.9 kmh N 12.5 mph20.1 kmh 29.98 in1015.2 mb 0.00 in0.0 mm 0.00 in0.0 mm 0.00 in0.0 mm
10:45 AM 61.5°F16.4°C 58.6°F14.8°C 90% 6.3 mph N10.1 kmh N 12.2 mph19.6 kmh 29.98 in1015.2 mb 0.00 in0.0 mm 0.00 in0.0 mm 0.00 in0.0 mm
11:00 AM 61.9°F16.6°C 58.9°F14.9°C 90% 6.5 mph N10.5 kmh N 10.0 mph16.1 kmh 29.98 in1015.2 mb 0.00 in0.0 mm 0.00 in0.0 mm 0.00 in0.0 mm
11:15 AM 61.9°F16.6°C 58.6°F14.8°C 89% 7.4 mph N11.9 kmh N 12.9 mph20.8 kmh 29.98 in1015.2 mb 0.00 in0.0 mm 0.00 in0.0 mm 0.00 in0.0 mm
11:30 AM 62.6°F17.0°C 59.0°F15.0°C 88% 7.3 mph N11.7 kmh N 12.2 mph19.6 kmh 30.01 in1016.3 mb 0.05 in1.3 mm 0.20 in5.1 mm 0.05 in1.3 mm
11:45 AM 62.6°F17.0°C 58.7°F14.8°C 87% 7.5 mph N12.1 kmh N 13.6 mph21.9 kmh 29.98 in1015.2 mb 0.05 in1.3 mm 0.00 in0.0 mm 0.05 in1.3 mm
12:01 PM 62.8°F17.1°C 58.9°F14.9°C 87% 7.8 mph N12.6 kmh N 13.6 mph21.9 kmh 30.01 in1016.3 mb 0.05 in1.3 mm 0.00 in0.0 mm 0.05 in1.3 mm
12:15 PM 63.1°F17.3°C 58.9°F14.9°C 86% 8.0 mph N12.9 kmh N 14.0 mph22.5 kmh 29.98 in1015.2 mb 0.05 in1.3 mm 0.00 in0.0 mm 0.05 in1.3 mm
12:30 PM 63.7°F17.6°C 59.1°F15.1°C 85% 8.9 mph N14.3 kmh N 20.4 mph32.8 kmh 29.98 in1015.2 mb 0.00 in0.0 mm 0.00 in0.0 mm 0.05 in1.3 mm
12:45 PM 64.0°F17.8°C 58.4°F14.7°C 82% 10.5 mph N16.9 kmh N 17.5 mph28.2 kmh 29.95 in1014.2 mb 0.00 in0.0 mm 0.00 in0.0 mm 0.05 in1.3 mm
01:00 PM 64.2°F17.9°C 57.9°F14.4°C 80% 8.0 mph N12.9 kmh N 15.7 mph25.3 kmh 29.98 in1015.2 mb 0.00 in0.0 mm 0.00 in0.0 mm 0.05 in1.3 mm
01:15 PM 64.4°F18.0°C 58.4°F14.7°C 81% 8.3 mph N13.4 kmh N 14.0 mph22.5 kmh 29.98 in1015.2 mb 0.00 in0.0 mm 0.00 in0.0 mm 0.05 in1.3 mm
01:30 PM 64.0°F17.8°C 57.7°F14.3°C 80% 7.7 mph N12.4 kmh N 14.0 mph22.5 kmh 29.98 in1015.2 mb 0.00 in0.0 mm 0.00 in0.0 mm 0.05 in1.3 mm
01:45 PM 63.9°F17.7°C 57.6°F14.2°C 80% 9.4 mph N15.1 kmh N 15.7 mph25.3 kmh 29.98 in1015.2 mb 0.00 in0.0 mm 0.00 in0.0 mm 0.05 in1.3 mm
02:00 PM 63.1°F17.3°C 56.9°F13.8°C 80% 9.3 mph N15.0 kmh N 16.8 mph27.0 kmh 29.98 in1015.2 mb 0.00 in0.0 mm 0.00 in0.0 mm 0.05 in1.3 mm
02:15 PM 63.1°F17.3°C 56.9°F13.8°C 80% 8.5 mph N13.7 kmh N 15.7 mph25.3 kmh 29.98 in1015.2 mb 0.00 in0.0 mm 0.00 in0.0 mm 0.05 in1.3 mm
02:30 PM 63.5°F17.5°C 57.2°F14.0°C 80% 9.1 mph N14.6 kmh N 15.4 mph24.8 kmh 29.98 in1015.2 mb 0.00 in0.0 mm 0.00 in0.0 mm 0.05 in1.3 mm
02:45 PM 63.7°F17.6°C 57.4°F14.1°C 80% 8.3 mph N13.4 kmh N 17.5 mph28.2 kmh 29.98 in1015.2 mb 0.00 in0.0 mm 0.00 in0.0 mm 0.05 in1.3 mm
03:00 PM 63.1°F17.3°C 56.2°F13.4°C 78% 10.4 mph N16.7 kmh N 20.4 mph32.8 kmh 29.98 in1015.2 mb 0.00 in0.0 mm 0.00 in0.0 mm 0.05 in1.3 mm
03:15 PM 63.0°F17.2°C 56.7°F13.7°C 80% 9.9 mph N15.9 kmh N 17.5 mph28.2 kmh 30.01 in1016.3 mb 0.00 in0.0 mm 0.00 in0.0 mm 0.05 in1.3 mm
03:30 PM 62.8°F17.1°C 56.5°F13.6°C 80% 9.0 mph N14.5 kmh N 16.8 mph27.0 kmh 30.01 in1016.3 mb 0.00 in0.0 mm 0.00 in0.0 mm 0.05 in1.3 mm
03:45 PM 62.6°F17.0°C 56.3°F13.5°C 80% 8.2 mph N13.2 kmh N 13.6 mph21.9 kmh 30.01 in1016.3 mb 0.00 in0.0 mm 0.00 in0.0 mm 0.05 in1.3 mm
04:00 PM 62.6°F17.0°C 55.3°F12.9°C 77% 10.7 mph N17.2 kmh N 19.7 mph31.7 kmh 30.01 in1016.3 mb 0.00 in0.0 mm 0.00 in0.0 mm 0.05 in1.3 mm
04:15 PM 63.0°F17.2°C 55.6°F13.1°C 77% 10.5 mph N16.9 kmh N 19.0 mph30.6 kmh 30.01 in1016.3 mb 0.00 in0.0 mm 0.00 in0.0 mm 0.05 in1.3 mm
04:30 PM 63.3°F17.4°C 55.6°F13.1°C 76% 7.8 mph N12.6 kmh N 16.8 mph27.0 kmh 30.01 in1016.3 mb 0.00 in0.0 mm 0.00 in0.0 mm 0.05 in1.3 mm
04:45 PM 63.0°F17.2°C 55.3°F12.9°C 76% 8.8 mph N14.2 kmh N 16.8 mph27.0 kmh 30.04 in1017.3 mb 0.00 in0.0 mm 0.00 in0.0 mm 0.05 in1.3 mm
05:00 PM 62.6°F17.0°C 55.3°F12.9°C 77% 8.3 mph N13.4 kmh N 14.0 mph22.5 kmh 30.04 in1017.3 mb 0.00 in0.0 mm 0.00 in0.0 mm 0.05 in1.3 mm
05:15 PM 61.9°F16.6°C 54.9°F12.7°C 78% 8.7 mph N14.0 kmh N 17.2 mph27.7 kmh 30.04 in1017.3 mb 0.00 in0.0 mm 0.00 in0.0 mm 0.05 in1.3 mm
05:30 PM 61.3°F16.3°C 54.8°F12.7°C 79% 7.4 mph N11.9 kmh N 13.6 mph21.9 kmh 30.04 in1017.3 mb 0.00 in0.0 mm 0.00 in0.0 mm 0.05 in1.3 mm
05:45 PM 60.8°F16.0°C 54.9°F12.7°C 81% 8.4 mph N13.5 kmh N 15.7 mph25.3 kmh 30.04 in1017.3 mb 0.00 in0.0 mm 0.00 in0.0 mm 0.05 in1.3 mm
06:00 PM 60.4°F15.8°C 54.9°F12.7°C 82% 9.1 mph N14.6 kmh N 12.9 mph20.8 kmh 30.01 in1016.3 mb 0.00 in0.0 mm 0.00 in0.0 mm 0.05 in1.3 mm
06:15 PM 59.9°F15.5°C 54.7°F12.6°C 83% 8.2 mph N13.2 kmh N 12.5 mph20.1 kmh 30.04 in1017.3 mb 0.00 in0.0 mm 0.00 in0.0 mm 0.05 in1.3 mm
06:30 PM 59.4°F15.2°C 54.2°F12.3°C 83% 7.7 mph N12.4 kmh N 13.6 mph21.9 kmh 30.01 in1016.3 mb 0.00 in0.0 mm 0.00 in0.0 mm 0.05 in1.3 mm
06:45 PM 58.8°F14.9°C 53.7°F12.1°C 83% 9.0 mph N14.5 kmh N 15.4 mph24.8 kmh 30.04 in1017.3 mb 0.00 in0.0 mm 0.00 in0.0 mm 0.05 in1.3 mm
07:00 PM 58.5°F14.7°C 53.3°F11.8°C 83% 9.7 mph N15.6 kmh N 15.7 mph25.3 kmh 30.01 in1016.3 mb 0.00 in0.0 mm 0.00 in0.0 mm 0.05 in1.3 mm
07:15 PM 58.1°F14.5°C 53.3°F11.8°C 84% 5.7 mph N9.2 kmh N 10.4 mph16.7 kmh 30.04 in1017.3 mb 0.00 in0.0 mm 0.00 in0.0 mm 0.05 in1.3 mm
07:30 PM 57.7°F14.3°C 52.9°F11.6°C 84% 4.8 mph N7.7 kmh N 11.1 mph17.9 kmh 30.04 in1017.3 mb 0.00 in0.0 mm 0.00 in0.0 mm 0.05 in1.3 mm
07:45 PM 57.6°F14.2°C 52.8°F11.6°C 84% 2.3 mph N3.7 kmh N 8.6 mph13.8 kmh 30.04 in1017.3 mb 0.00 in0.0 mm 0.00 in0.0 mm 0.05 in1.3 mm
08:02 PM 57.6°F14.2°C 53.1°F11.7°C 85% 1.4 mph NNW2.3 kmh NNW 8.6 mph13.8 kmh 30.07 in1018.3 mb 0.00 in0.0 mm 0.00 in0.0 mm 0.05 in1.3 mm
08:15 PM 57.6°F14.2°C 53.1°F11.7°C 85% 1.8 mph NNW2.9 kmh NNW 6.4 mph10.3 kmh 30.07 in1018.3 mb 0.00 in0.0 mm 0.00 in0.0 mm 0.05 in1.3 mm
08:30 PM 57.6°F14.2°C 53.1°F11.7°C 85% 1.9 mph N3.1 kmh N 9.3 mph15.0 kmh 30.07 in1018.3 mb 0.00 in0.0 mm 0.00 in0.0 mm 0.05 in1.3 mm
08:45 PM 57.6°F14.2°C 53.1°F11.7°C 85% 2.4 mph N3.9 kmh N 8.6 mph13.8 kmh 30.07 in1018.3 mb 0.00 in0.0 mm 0.00 in0.0 mm 0.05 in1.3 mm
09:00 PM 57.6°F14.2°C 53.4°F11.9°C 86% 1.5 mph N2.4 kmh N 8.9 mph14.3 kmh 30.07 in1018.3 mb 0.00 in0.0 mm 0.00 in0.0 mm 0.05 in1.3 mm
09:15 PM 57.2°F14.0°C 52.7°F11.5°C 85% 1.1 mph N1.8 kmh N 4.7 mph7.6 kmh 30.07 in1018.3 mb 0.00 in0.0 mm 0.00 in0.0 mm 0.05 in1.3 mm
09:30 PM 57.0°F13.9°C 52.9°F11.6°C 86% 1.6 mph NW2.6 kmh NW 5.4 mph8.7 kmh 30.07 in1018.3 mb 0.00 in0.0 mm 0.00 in0.0 mm 0.05 in1.3 mm
09:45 PM 56.7°F13.7°C 52.5°F11.4°C 86% 0.3 mph NW0.5 kmh NW 4.7 mph7.6 kmh 30.07 in1018.3 mb 0.00 in0.0 mm 0.00 in0.0 mm 0.05 in1.3 mm
10:00 PM 56.3°F13.5°C 52.2°F11.2°C 86% 0.2 mph NW0.3 kmh NW 2.1 mph3.4 kmh 30.09 in1019.0 mb 0.00 in0.0 mm 0.00 in0.0 mm 0.05 in1.3 mm
10:15 PM 55.9°F13.3°C 52.1°F11.2°C 87% Calm Calm -- 30.09 in1019.0 mb 0.00 in0.0 mm 0.00 in0.0 mm 0.05 in1.3 mm
10:30 PM 55.8°F13.2°C 51.9°F11.1°C 87% 0.5 mph NW0.8 kmh NW 3.9 mph6.3 kmh 30.07 in1018.3 mb 0.00 in0.0 mm 0.00 in0.0 mm 0.05 in1.3 mm
10:45 PM 55.4°F13.0°C 51.6°F10.9°C 87% 0.3 mph NW0.5 kmh NW 2.1 mph3.4 kmh 30.09 in1019.0 mb 0.00 in0.0 mm 0.00 in0.0 mm 0.05 in1.3 mm
11:00 PM 55.4°F13.0°C 51.9°F11.1°C 88% 0.3 mph W0.5 kmh W 3.2 mph5.1 kmh 30.07 in1018.3 mb 0.00 in0.0 mm 0.00 in0.0 mm 0.05 in1.3 mm
11:15 PM 55.6°F13.1°C 52.1°F11.2°C 88% 0.5 mph WNW0.8 kmh WNW 3.6 mph5.8 kmh 30.07 in1018.3 mb 0.00 in0.0 mm 0.00 in0.0 mm 0.05 in1.3 mm
11:30 PM 55.8°F13.2°C 52.6°F11.4°C 89% 0.4 mph W0.6 kmh W 5.4 mph8.7 kmh 30.07 in1018.3 mb 0.00 in0.0 mm 0.00 in0.0 mm 0.05 in1.3 mm
11:45 PM 55.9°F13.3°C 52.7°F11.5°C 89% 0.7 mph WNW1.1 kmh WNW 5.0 mph8.0 kmh 30.09 in1019.0 mb 0.00 in0.0 mm 0.00 in0.0 mm 0.05 in1.3 mm